sensor_id;sensor_type;location;lat;lon;timestamp;P1;durP1;ratioP1;P2;durP2;ratioP2
31482;SDS011;18103;52.246;8.052;2023-03-20T00:01:44;30.67;;;11.60;;
31482;SDS011;18103;52.246;8.052;2023-03-20T00:04:10;34.77;;;11.93;;
31482;SDS011;18103;52.246;8.052;2023-03-20T00:06:36;32.87;;;11.53;;
31482;SDS011;18103;52.246;8.052;2023-03-20T00:09:02;32.27;;;10.50;;
31482;SDS011;18103;52.246;8.052;2023-03-20T00:11:33;27.70;;;9.97;;
31482;SDS011;18103;52.246;8.052;2023-03-20T00:14:07;31.23;;;10.17;;
31482;SDS011;18103;52.246;8.052;2023-03-20T00:16:38;35.37;;;10.77;;
31482;SDS011;18103;52.246;8.052;2023-03-20T00:19:05;31.40;;;11.17;;
31482;SDS011;18103;52.246;8.052;2023-03-20T00:21:37;32.33;;;11.80;;
31482;SDS011;18103;52.246;8.052;2023-03-20T00:24:03;39.20;;;11.10;;
31482;SDS011;18103;52.246;8.052;2023-03-20T00:26:32;32.03;;;12.03;;
31482;SDS011;18103;52.246;8.052;2023-03-20T00:28:59;33.40;;;10.50;;
31482;SDS011;18103;52.246;8.052;2023-03-20T00:31:26;30.63;;;10.93;;
31482;SDS011;18103;52.246;8.052;2023-03-20T00:33:57;45.13;;;12.37;;
31482;SDS011;18103;52.246;8.052;2023-03-20T00:36:26;31.73;;;11.10;;
31482;SDS011;18103;52.246;8.052;2023-03-20T00:38:55;34.97;;;11.60;;
31482;SDS011;18103;52.246;8.052;2023-03-20T00:43:54;37.40;;;12.10;;
31482;SDS011;18103;52.246;8.052;2023-03-20T00:46:23;37.27;;;12.43;;
31482;SDS011;18103;52.246;8.052;2023-03-20T00:48:50;38.10;;;11.83;;
31482;SDS011;18103;52.246;8.052;2023-03-20T00:51:16;41.60;;;12.33;;
31482;SDS011;18103;52.246;8.052;2023-03-20T00:53:44;38.80;;;12.40;;
31482;SDS011;18103;52.246;8.052;2023-03-20T00:56:20;33.00;;;11.63;;
31482;SDS011;18103;52.246;8.052;2023-03-20T00:58:56;35.57;;;11.03;;
31482;SDS011;18103;52.246;8.052;2023-03-20T01:01:23;35.63;;;12.27;;
31482;SDS011;18103;52.246;8.052;2023-03-20T01:03:51;40.23;;;12.93;;
31482;SDS011;18103;52.246;8.052;2023-03-20T01:06:17;42.00;;;13.40;;
31482;SDS011;18103;52.246;8.052;2023-03-20T01:08:43;43.33;;;13.30;;
31482;SDS011;18103;52.246;8.052;2023-03-20T01:11:12;46.33;;;12.70;;
31482;SDS011;18103;52.246;8.052;2023-03-20T01:13:40;38.00;;;12.23;;
31482;SDS011;18103;52.246;8.052;2023-03-20T01:16:12;40.13;;;13.37;;
31482;SDS011;18103;52.246;8.052;2023-03-20T01:18:46;35.03;;;12.60;;
31482;SDS011;18103;52.246;8.052;2023-03-20T01:21:12;45.17;;;12.93;;
31482;SDS011;18103;52.246;8.052;2023-03-20T01:23:38;39.70;;;13.00;;
31482;SDS011;18103;52.246;8.052;2023-03-20T01:26:03;36.87;;;13.80;;
31482;SDS011;18103;52.246;8.052;2023-03-20T01:28:45;40.90;;;12.80;;
31482;SDS011;18103;52.246;8.052;2023-03-20T01:31:14;36.77;;;11.90;;
31482;SDS011;18103;52.246;8.052;2023-03-20T01:33:43;35.23;;;13.10;;
31482;SDS011;18103;52.246;8.052;2023-03-20T01:36:12;35.30;;;12.40;;
31482;SDS011;18103;52.246;8.052;2023-03-20T01:38:39;43.40;;;13.83;;
31482;SDS011;18103;52.246;8.052;2023-03-20T01:41:06;38.93;;;14.73;;
31482;SDS011;18103;52.246;8.052;2023-03-20T01:43:44;35.73;;;13.47;;
31482;SDS011;18103;52.246;8.052;2023-03-20T01:51:18;42.33;;;14.03;;
31482;SDS011;18103;52.246;8.052;2023-03-20T01:53:44;38.97;;;12.97;;
31482;SDS011;18103;52.246;8.052;2023-03-20T01:56:14;45.30;;;14.00;;
31482;SDS011;18103;52.246;8.052;2023-03-20T01:58:48;41.60;;;14.57;;
31482;SDS011;18103;52.246;8.052;2023-03-20T02:01:22;41.03;;;13.43;;
31482;SDS011;18103;52.246;8.052;2023-03-20T02:03:53;37.17;;;13.07;;
31482;SDS011;18103;52.246;8.052;2023-03-20T02:06:19;44.97;;;14.03;;
31482;SDS011;18103;52.246;8.052;2023-03-20T02:08:50;40.77;;;13.23;;
31482;SDS011;18103;52.246;8.052;2023-03-20T02:11:17;38.40;;;13.83;;
31482;SDS011;18103;52.246;8.052;2023-03-20T02:13:46;39.20;;;12.67;;
31482;SDS011;18103;52.246;8.052;2023-03-20T02:16:13;39.67;;;13.93;;
31482;SDS011;18103;52.246;8.052;2023-03-20T02:18:40;46.23;;;14.13;;
31482;SDS011;18103;52.246;8.052;2023-03-20T02:29:17;42.87;;;13.57;;
31482;SDS011;18103;52.246;8.052;2023-03-20T02:45:43;42.93;;;15.10;;
31482;SDS011;18103;52.246;8.052;2023-03-20T02:56:30;49.97;;;17.07;;
31482;SDS011;18103;52.246;8.052;2023-03-20T03:02:08;38.33;;;16.10;;
31482;SDS011;18103;52.246;8.052;2023-03-20T03:04:49;48.20;;;15.50;;
31482;SDS011;18103;52.246;8.052;2023-03-20T03:07:18;48.83;;;16.50;;
31482;SDS011;18103;52.246;8.052;2023-03-20T03:10:10;49.47;;;17.00;;
31482;SDS011;18103;52.246;8.052;2023-03-20T03:12:42;39.80;;;14.80;;
31482;SDS011;18103;52.246;8.052;2023-03-20T03:15:21;51.13;;;18.63;;
31482;SDS011;18103;52.246;8.052;2023-03-20T03:17:54;44.70;;;16.60;;
31482;SDS011;18103;52.246;8.052;2023-03-20T03:20:23;43.40;;;17.03;;
31482;SDS011;18103;52.246;8.052;2023-03-20T03:22:53;46.30;;;18.00;;
31482;SDS011;18103;52.246;8.052;2023-03-20T03:25:20;40.63;;;16.33;;
31482;SDS011;18103;52.246;8.052;2023-03-20T03:27:52;58.60;;;18.13;;
31482;SDS011;18103;52.246;8.052;2023-03-20T03:30:25;50.57;;;17.37;;
31482;SDS011;18103;52.246;8.052;2023-03-20T03:35:37;49.60;;;16.93;;
31482;SDS011;18103;52.246;8.052;2023-03-20T03:49:11;45.43;;;15.70;;
31482;SDS011;18103;52.246;8.052;2023-03-20T03:51:48;45.90;;;15.73;;
31482;SDS011;18103;52.246;8.052;2023-03-20T03:54:19;39.73;;;15.37;;
31482;SDS011;18103;52.246;8.052;2023-03-20T03:56:53;50.93;;;16.43;;
31482;SDS011;18103;52.246;8.052;2023-03-20T03:59:27;37.43;;;14.87;;
31482;SDS011;18103;52.246;8.052;2023-03-20T04:01:59;38.97;;;15.43;;
31482;SDS011;18103;52.246;8.052;2023-03-20T04:04:27;46.50;;;14.47;;
31482;SDS011;18103;52.246;8.052;2023-03-20T04:06:55;40.13;;;16.60;;
31482;SDS011;18103;52.246;8.052;2023-03-20T04:09:23;34.30;;;14.90;;
31482;SDS011;18103;52.246;8.052;2023-03-20T04:11:49;46.10;;;16.83;;
31482;SDS011;18103;52.246;8.052;2023-03-20T04:14:16;39.83;;;15.13;;
31482;SDS011;18103;52.246;8.052;2023-03-20T04:16:42;44.77;;;15.77;;
31482;SDS011;18103;52.246;8.052;2023-03-20T04:19:09;43.70;;;17.13;;
31482;SDS011;18103;52.246;8.052;2023-03-20T04:21:35;42.90;;;15.77;;
31482;SDS011;18103;52.246;8.052;2023-03-20T04:24:00;36.40;;;14.37;;
31482;SDS011;18103;52.246;8.052;2023-03-20T04:26:28;38.47;;;14.37;;
31482;SDS011;18103;52.246;8.052;2023-03-20T04:28:56;36.60;;;14.33;;
31482;SDS011;18103;52.246;8.052;2023-03-20T04:31:21;34.67;;;13.63;;
31482;SDS011;18103;52.246;8.052;2023-03-20T04:33:47;34.33;;;13.27;;
31482;SDS011;18103;52.246;8.052;2023-03-20T04:36:15;37.17;;;13.53;;
31482;SDS011;18103;52.246;8.052;2023-03-20T04:38:40;31.40;;;13.07;;
31482;SDS011;18103;52.246;8.052;2023-03-20T04:41:08;33.00;;;12.13;;
31482;SDS011;18103;52.246;8.052;2023-03-20T04:43:33;32.40;;;12.77;;
31482;SDS011;18103;52.246;8.052;2023-03-20T04:45:59;32.83;;;10.77;;
31482;SDS011;18103;52.246;8.052;2023-03-20T04:48:24;24.27;;;10.67;;
31482;SDS011;18103;52.246;8.052;2023-03-20T04:50:51;33.57;;;12.63;;
31482;SDS011;18103;52.246;8.052;2023-03-20T04:53:19;24.97;;;11.30;;
31482;SDS011;18103;52.246;8.052;2023-03-20T04:55:45;28.57;;;11.57;;
31482;SDS011;18103;52.246;8.052;2023-03-20T04:58:11;31.07;;;11.73;;
31482;SDS011;18103;52.246;8.052;2023-03-20T05:00:39;30.80;;;11.77;;
31482;SDS011;18103;52.246;8.052;2023-03-20T05:03:07;32.53;;;11.67;;
31482;SDS011;18103;52.246;8.052;2023-03-20T05:05:32;25.27;;;10.67;;
31482;SDS011;18103;52.246;8.052;2023-03-20T05:08:01;28.90;;;10.80;;
31482;SDS011;18103;52.246;8.052;2023-03-20T05:10:27;26.33;;;11.03;;
31482;SDS011;18103;52.246;8.052;2023-03-20T05:12:53;29.87;;;12.03;;
31482;SDS011;18103;52.246;8.052;2023-03-20T05:15:18;25.87;;;10.83;;
31482;SDS011;18103;52.246;8.052;2023-03-20T05:17:43;31.13;;;12.70;;
31482;SDS011;18103;52.246;8.052;2023-03-20T05:20:09;30.23;;;11.27;;
31482;SDS011;18103;52.246;8.052;2023-03-20T05:22:35;24.00;;;10.07;;
31482;SDS011;18103;52.246;8.052;2023-03-20T05:25:00;26.90;;;11.83;;
31482;SDS011;18103;52.246;8.052;2023-03-20T05:27:26;28.67;;;10.20;;
31482;SDS011;18103;52.246;8.052;2023-03-20T05:29:53;24.07;;;11.10;;
31482;SDS011;18103;52.246;8.052;2023-03-20T05:32:19;25.00;;;10.90;;
31482;SDS011;18103;52.246;8.052;2023-03-20T05:34:44;26.50;;;10.80;;
31482;SDS011;18103;52.246;8.052;2023-03-20T05:37:10;21.93;;;9.73;;
31482;SDS011;18103;52.246;8.052;2023-03-20T05:39:35;24.43;;;9.47;;
31482;SDS011;18103;52.246;8.052;2023-03-20T05:42:01;23.53;;;9.97;;
31482;SDS011;18103;52.246;8.052;2023-03-20T05:44:26;23.53;;;9.40;;
31482;SDS011;18103;52.246;8.052;2023-03-20T05:46:51;21.53;;;9.27;;
31482;SDS011;18103;52.246;8.052;2023-03-20T05:49:17;25.33;;;10.03;;
31482;SDS011;18103;52.246;8.052;2023-03-20T05:51:42;20.10;;;8.70;;
31482;SDS011;18103;52.246;8.052;2023-03-20T05:54:07;20.17;;;9.20;;
31482;SDS011;18103;52.246;8.052;2023-03-20T05:56:33;22.63;;;9.53;;
31482;SDS011;18103;52.246;8.052;2023-03-20T05:58:58;24.00;;;9.33;;
31482;SDS011;18103;52.246;8.052;2023-03-20T06:01:23;21.57;;;8.83;;
31482;SDS011;18103;52.246;8.052;2023-03-20T06:03:49;23.57;;;8.77;;
31482;SDS011;18103;52.246;8.052;2023-03-20T06:06:15;20.50;;;9.13;;
31482;SDS011;18103;52.246;8.052;2023-03-20T06:08:43;20.53;;;8.70;;
31482;SDS011;18103;52.246;8.052;2023-03-20T06:11:08;25.53;;;9.27;;
31482;SDS011;18103;52.246;8.052;2023-03-20T06:13:37;23.10;;;9.13;;
31482;SDS011;18103;52.246;8.052;2023-03-20T06:16:05;26.13;;;8.53;;
31482;SDS011;18103;52.246;8.052;2023-03-20T06:18:31;21.80;;;9.80;;
31482;SDS011;18103;52.246;8.052;2023-03-20T06:20:56;18.67;;;9.27;;
31482;SDS011;18103;52.246;8.052;2023-03-20T06:23:22;24.13;;;9.17;;
31482;SDS011;18103;52.246;8.052;2023-03-20T06:25:50;23.67;;;10.07;;
31482;SDS011;18103;52.246;8.052;2023-03-20T06:28:15;20.57;;;9.17;;
31482;SDS011;18103;52.246;8.052;2023-03-20T06:30:41;21.03;;;9.57;;
31482;SDS011;18103;52.246;8.052;2023-03-20T06:33:07;21.00;;;10.00;;
31482;SDS011;18103;52.246;8.052;2023-03-20T06:35:34;26.47;;;11.07;;
31482;SDS011;18103;52.246;8.052;2023-03-20T06:37:59;23.43;;;9.50;;
31482;SDS011;18103;52.246;8.052;2023-03-20T06:40:25;28.70;;;10.10;;
31482;SDS011;18103;52.246;8.052;2023-03-20T06:42:54;29.63;;;11.20;;
31482;SDS011;18103;52.246;8.052;2023-03-20T06:45:20;36.60;;;12.30;;
31482;SDS011;18103;52.246;8.052;2023-03-20T06:47:48;24.93;;;12.33;;
31482;SDS011;18103;52.246;8.052;2023-03-20T06:50:19;27.67;;;11.70;;
31482;SDS011;18103;52.246;8.052;2023-03-20T06:52:47;31.43;;;12.50;;
31482;SDS011;18103;52.246;8.052;2023-03-20T06:55:12;31.70;;;12.20;;
31482;SDS011;18103;52.246;8.052;2023-03-20T06:57:38;27.47;;;11.10;;
31482;SDS011;18103;52.246;8.052;2023-03-20T07:00:04;32.77;;;12.10;;
31482;SDS011;18103;52.246;8.052;2023-03-20T07:02:33;28.43;;;12.13;;
31482;SDS011;18103;52.246;8.052;2023-03-20T07:04:58;24.60;;;10.27;;
31482;SDS011;18103;52.246;8.052;2023-03-20T07:07:24;25.47;;;12.07;;
31482;SDS011;18103;52.246;8.052;2023-03-20T07:09:52;23.47;;;10.67;;
31482;SDS011;18103;52.246;8.052;2023-03-20T07:12:17;21.23;;;10.13;;
31482;SDS011;18103;52.246;8.052;2023-03-20T07:14:46;22.70;;;9.20;;
31482;SDS011;18103;52.246;8.052;2023-03-20T07:17:14;24.90;;;8.33;;
31482;SDS011;18103;52.246;8.052;2023-03-20T07:19:42;22.93;;;9.43;;
31482;SDS011;18103;52.246;8.052;2023-03-20T07:22:08;20.57;;;8.97;;
31482;SDS011;18103;52.246;8.052;2023-03-20T07:24:42;21.57;;;8.80;;
31482;SDS011;18103;52.246;8.052;2023-03-20T07:27:11;15.90;;;8.43;;
31482;SDS011;18103;52.246;8.052;2023-03-20T07:29:36;21.90;;;8.87;;
31482;SDS011;18103;52.246;8.052;2023-03-20T07:32:02;16.03;;;8.37;;
31482;SDS011;18103;52.246;8.052;2023-03-20T07:34:30;22.07;;;9.20;;
31482;SDS011;18103;52.246;8.052;2023-03-20T07:36:55;17.77;;;8.57;;
31482;SDS011;18103;52.246;8.052;2023-03-20T07:39:21;19.07;;;7.97;;
31482;SDS011;18103;52.246;8.052;2023-03-20T07:41:47;21.77;;;8.43;;
31482;SDS011;18103;52.246;8.052;2023-03-20T07:44:15;19.50;;;8.07;;
31482;SDS011;18103;52.246;8.052;2023-03-20T07:46:45;17.17;;;6.73;;
31482;SDS011;18103;52.246;8.052;2023-03-20T07:49:14;12.53;;;6.00;;
31482;SDS011;18103;52.246;8.052;2023-03-20T07:51:44;13.97;;;6.97;;
31482;SDS011;18103;52.246;8.052;2023-03-20T07:54:10;18.67;;;6.80;;
31482;SDS011;18103;52.246;8.052;2023-03-20T07:56:36;11.77;;;5.43;;
31482;SDS011;18103;52.246;8.052;2023-03-20T07:59:04;12.10;;;5.57;;
31482;SDS011;18103;52.246;8.052;2023-03-20T08:01:32;10.07;;;5.10;;
31482;SDS011;18103;52.246;8.052;2023-03-20T08:03:58;10.67;;;5.00;;
31482;SDS011;18103;52.246;8.052;2023-03-20T08:06:26;11.77;;;4.40;;
31482;SDS011;18103;52.246;8.052;2023-03-20T08:08:51;8.87;;;3.73;;
31482;SDS011;18103;52.246;8.052;2023-03-20T08:11:19;13.03;;;4.60;;
31482;SDS011;18103;52.246;8.052;2023-03-20T08:13:45;15.47;;;5.03;;
31482;SDS011;18103;52.246;8.052;2023-03-20T08:16:10;8.93;;;4.00;;
31482;SDS011;18103;52.246;8.052;2023-03-20T08:18:38;4.87;;;2.80;;
31482;SDS011;18103;52.246;8.052;2023-03-20T08:21:03;9.57;;;4.33;;
31482;SDS011;18103;52.246;8.052;2023-03-20T08:23:29;8.50;;;4.30;;
31482;SDS011;18103;52.246;8.052;2023-03-20T08:25:54;10.13;;;4.50;;
31482;SDS011;18103;52.246;8.052;2023-03-20T08:28:20;16.20;;;5.43;;
31482;SDS011;18103;52.246;8.052;2023-03-20T08:30:46;14.47;;;5.33;;
31482;SDS011;18103;52.246;8.052;2023-03-20T08:33:15;9.90;;;4.43;;
31482;SDS011;18103;52.246;8.052;2023-03-20T08:35:41;14.97;;;4.70;;
31482;SDS011;18103;52.246;8.052;2023-03-20T08:38:11;9.40;;;4.40;;
31482;SDS011;18103;52.246;8.052;2023-03-20T08:40:40;13.57;;;5.13;;
31482;SDS011;18103;52.246;8.052;2023-03-20T08:43:09;7.40;;;4.13;;
31482;SDS011;18103;52.246;8.052;2023-03-20T08:45:34;9.10;;;4.23;;
31482;SDS011;18103;52.246;8.052;2023-03-20T08:48:02;16.10;;;4.87;;
31482;SDS011;18103;52.246;8.052;2023-03-20T08:50:30;9.47;;;3.47;;
31482;SDS011;18103;52.246;8.052;2023-03-20T08:52:55;12.53;;;4.57;;
31482;SDS011;18103;52.246;8.052;2023-03-20T08:55:21;11.40;;;4.33;;
31482;SDS011;18103;52.246;8.052;2023-03-20T08:57:50;14.07;;;5.20;;
31482;SDS011;18103;52.246;8.052;2023-03-20T09:00:18;8.93;;;4.23;;
31482;SDS011;18103;52.246;8.052;2023-03-20T09:02:46;18.30;;;4.63;;
31482;SDS011;18103;52.246;8.052;2023-03-20T09:05:11;10.87;;;4.77;;
31482;SDS011;18103;52.246;8.052;2023-03-20T09:07:37;12.47;;;4.63;;
31482;SDS011;18103;52.246;8.052;2023-03-20T09:10:03;14.17;;;5.23;;
31482;SDS011;18103;52.246;8.052;2023-03-20T09:12:29;10.87;;;4.63;;
31482;SDS011;18103;52.246;8.052;2023-03-20T09:14:59;12.17;;;4.60;;
31482;SDS011;18103;52.246;8.052;2023-03-20T09:17:26;11.07;;;4.70;;
31482;SDS011;18103;52.246;8.052;2023-03-20T09:19:52;12.83;;;4.63;;
31482;SDS011;18103;52.246;8.052;2023-03-20T09:22:17;11.13;;;3.83;;
31482;SDS011;18103;52.246;8.052;2023-03-20T09:24:45;10.80;;;3.47;;
31482;SDS011;18103;52.246;8.052;2023-03-20T09:27:10;11.47;;;3.70;;
31482;SDS011;18103;52.246;8.052;2023-03-20T09:29:41;16.70;;;4.00;;
31482;SDS011;18103;52.246;8.052;2023-03-20T09:32:09;15.40;;;4.67;;
31482;SDS011;18103;52.246;8.052;2023-03-20T09:34:36;16.53;;;4.43;;
31482;SDS011;18103;52.246;8.052;2023-03-20T09:37:01;19.10;;;3.53;;
31482;SDS011;18103;52.246;8.052;2023-03-20T09:39:29;7.43;;;3.63;;
31482;SDS011;18103;52.246;8.052;2023-03-20T09:41:54;12.23;;;4.13;;
31482;SDS011;18103;52.246;8.052;2023-03-20T09:52:29;9.73;;;3.80;;
31482;SDS011;18103;52.246;8.052;2023-03-20T09:54:59;6.93;;;3.43;;
31482;SDS011;18103;52.246;8.052;2023-03-20T09:57:34;11.13;;;3.23;;
31482;SDS011;18103;52.246;8.052;2023-03-20T10:00:09;8.77;;;3.40;;
31482;SDS011;18103;52.246;8.052;2023-03-20T10:02:51;6.13;;;2.03;;
31482;SDS011;18103;52.246;8.052;2023-03-20T10:07:56;7.17;;;3.17;;
31482;SDS011;18103;52.246;8.052;2023-03-20T10:10:59;4.37;;;1.90;;
31482;SDS011;18103;52.246;8.052;2023-03-20T10:13:34;17.93;;;2.73;;
31482;SDS011;18103;52.246;8.052;2023-03-20T10:18:39;8.90;;;3.10;;
31482;SDS011;18103;52.246;8.052;2023-03-20T10:21:17;8.07;;;2.40;;
31482;SDS011;18103;52.246;8.052;2023-03-20T10:26:21;8.17;;;2.90;;
31482;SDS011;18103;52.246;8.052;2023-03-20T10:37:03;10.23;;;2.60;;
31482;SDS011;18103;52.246;8.052;2023-03-20T10:41:59;7.27;;;1.83;;
31482;SDS011;18103;52.246;8.052;2023-03-20T10:44:31;2.03;;;1.37;;
31482;SDS011;18103;52.246;8.052;2023-03-20T10:47:06;5.50;;;2.87;;
31482;SDS011;18103;52.246;8.052;2023-03-20T10:50:21;7.30;;;2.50;;
31482;SDS011;18103;52.246;8.052;2023-03-20T10:52:33;7.00;;;2.47;;
31482;SDS011;18103;52.246;8.052;2023-03-20T10:55:05;6.53;;;2.00;;
31482;SDS011;18103;52.246;8.052;2023-03-20T10:57:37;9.77;;;2.90;;
31482;SDS011;18103;52.246;8.052;2023-03-20T11:00:06;6.27;;;2.00;;
31482;SDS011;18103;52.246;8.052;2023-03-20T11:02:40;5.47;;;2.53;;
31482;SDS011;18103;52.246;8.052;2023-03-20T11:05:09;4.47;;;1.60;;
31482;SDS011;18103;52.246;8.052;2023-03-20T11:08:03;5.40;;;2.10;;
31482;SDS011;18103;52.246;8.052;2023-03-20T11:10:32;3.57;;;1.87;;
31482;SDS011;18103;52.246;8.052;2023-03-20T11:15:53;2.77;;;1.53;;
31482;SDS011;18103;52.246;8.052;2023-03-20T11:18:24;4.70;;;1.77;;
31482;SDS011;18103;52.246;8.052;2023-03-20T11:20:51;4.60;;;1.70;;
31482;SDS011;18103;52.246;8.052;2023-03-20T11:23:25;9.37;;;2.10;;
31482;SDS011;18103;52.246;8.052;2023-03-20T11:28:35;5.67;;;1.70;;
31482;SDS011;18103;52.246;8.052;2023-03-20T11:33:35;3.97;;;1.70;;
31482;SDS011;18103;52.246;8.052;2023-03-20T11:36:04;6.13;;;2.00;;
31482;SDS011;18103;52.246;8.052;2023-03-20T11:38:42;4.13;;;1.60;;
31482;SDS011;18103;52.246;8.052;2023-03-20T11:41:16;3.47;;;1.70;;
31482;SDS011;18103;52.246;8.052;2023-03-20T11:43:43;10.40;;;2.13;;
31482;SDS011;18103;52.246;8.052;2023-03-20T11:46:11;5.10;;;1.53;;
31482;SDS011;18103;52.246;8.052;2023-03-20T11:48:38;7.23;;;2.00;;
31482;SDS011;18103;52.246;8.052;2023-03-20T11:51:08;7.47;;;1.77;;
31482;SDS011;18103;52.246;8.052;2023-03-20T11:53:39;3.03;;;1.70;;
31482;SDS011;18103;52.246;8.052;2023-03-20T11:56:12;2.40;;;1.70;;
31482;SDS011;18103;52.246;8.052;2023-03-20T11:58:54;3.87;;;1.67;;
31482;SDS011;18103;52.246;8.052;2023-03-20T12:01:21;3.83;;;1.80;;
31482;SDS011;18103;52.246;8.052;2023-03-20T12:06:26;6.47;;;1.87;;
31482;SDS011;18103;52.246;8.052;2023-03-20T12:09:08;4.27;;;1.70;;
31482;SDS011;18103;52.246;8.052;2023-03-20T12:17:42;9.17;;;1.97;;
31482;SDS011;18103;52.246;8.052;2023-03-20T12:22:48;6.47;;;1.73;;
31482;SDS011;18103;52.246;8.052;2023-03-20T12:25:26;2.63;;;1.67;;
31482;SDS011;18103;52.246;8.052;2023-03-20T12:28:09;5.13;;;2.37;;
31482;SDS011;18103;52.246;8.052;2023-03-20T12:36:02;5.27;;;2.37;;
31482;SDS011;18103;52.246;8.052;2023-03-20T12:38:34;3.27;;;1.50;;
31482;SDS011;18103;52.246;8.052;2023-03-20T12:43:40;16.70;;;1.80;;
31482;SDS011;18103;52.246;8.052;2023-03-20T13:00:52;21.07;;;2.73;;
31482;SDS011;18103;52.246;8.052;2023-03-20T13:03:32;6.87;;;2.30;;
31482;SDS011;18103;52.246;8.052;2023-03-20T13:06:48;3.67;;;1.37;;
31482;SDS011;18103;52.246;8.052;2023-03-20T13:12:18;3.07;;;1.60;;
31482;SDS011;18103;52.246;8.052;2023-03-20T13:17:49;12.43;;;1.60;;
31482;SDS011;18103;52.246;8.052;2023-03-20T13:20:24;7.73;;;1.80;;
31482;SDS011;18103;52.246;8.052;2023-03-20T13:28:35;4.33;;;1.70;;
31482;SDS011;18103;52.246;8.052;2023-03-20T13:39:04;7.73;;;1.60;;
31482;SDS011;18103;52.246;8.052;2023-03-20T13:41:36;4.83;;;1.90;;
31482;SDS011;18103;52.246;8.052;2023-03-20T13:44:03;5.37;;;1.80;;
31482;SDS011;18103;52.246;8.052;2023-03-20T13:46:32;6.27;;;2.30;;
31482;SDS011;18103;52.246;8.052;2023-03-20T13:49:07;8.67;;;2.03;;
31482;SDS011;18103;52.246;8.052;2023-03-20T13:51:45;6.47;;;1.43;;
31482;SDS011;18103;52.246;8.052;2023-03-20T13:59:49;8.70;;;2.10;;
31482;SDS011;18103;52.246;8.052;2023-03-20T14:02:32;9.00;;;2.63;;
31482;SDS011;18103;52.246;8.052;2023-03-20T14:05:17;10.30;;;2.90;;
31482;SDS011;18103;52.246;8.052;2023-03-20T14:07:47;8.07;;;3.80;;
31482;SDS011;18103;52.246;8.052;2023-03-20T14:12:54;4.13;;;2.30;;
31482;SDS011;18103;52.246;8.052;2023-03-20T14:15:30;3.47;;;2.53;;
31482;SDS011;18103;52.246;8.052;2023-03-20T14:18:15;8.17;;;3.10;;
31482;SDS011;18103;52.246;8.052;2023-03-20T14:20:42;6.37;;;2.80;;
31482;SDS011;18103;52.246;8.052;2023-03-20T14:23:17;23.60;;;3.40;;
31482;SDS011;18103;52.246;8.052;2023-03-20T14:25:49;27.67;;;4.10;;
31482;SDS011;18103;52.246;8.052;2023-03-20T14:30:49;6.43;;;3.00;;
31482;SDS011;18103;52.246;8.052;2023-03-20T14:35:43;17.53;;;4.10;;
31482;SDS011;18103;52.246;8.052;2023-03-20T14:38:22;8.03;;;3.13;;
31482;SDS011;18103;52.246;8.052;2023-03-20T14:43:45;5.40;;;2.37;;
31482;SDS011;18103;52.246;8.052;2023-03-20T14:46:32;5.83;;;2.60;;
31482;SDS011;18103;52.246;8.052;2023-03-20T14:54:53;5.63;;;1.80;;
31482;SDS011;18103;52.246;8.052;2023-03-20T14:57:30;6.27;;;2.03;;
31482;SDS011;18103;52.246;8.052;2023-03-20T14:59:56;7.70;;;3.07;;
31482;SDS011;18103;52.246;8.052;2023-03-20T15:02:26;5.30;;;2.37;;
31482;SDS011;18103;52.246;8.052;2023-03-20T15:04:58;6.97;;;2.33;;
31482;SDS011;18103;52.246;8.052;2023-03-20T15:07:30;5.97;;;2.53;;
31482;SDS011;18103;52.246;8.052;2023-03-20T15:10:00;6.10;;;2.37;;
31482;SDS011;18103;52.246;8.052;2023-03-20T15:12:30;6.20;;;2.40;;
31482;SDS011;18103;52.246;8.052;2023-03-20T15:15:02;5.00;;;1.97;;
31482;SDS011;18103;52.246;8.052;2023-03-20T15:20:11;5.30;;;2.20;;
31482;SDS011;18103;52.246;8.052;2023-03-20T15:22:50;6.70;;;2.27;;
31482;SDS011;18103;52.246;8.052;2023-03-20T15:25:21;4.10;;;1.80;;
31482;SDS011;18103;52.246;8.052;2023-03-20T15:27:52;5.00;;;2.17;;
31482;SDS011;18103;52.246;8.052;2023-03-20T15:30:19;12.37;;;1.93;;
31482;SDS011;18103;52.246;8.052;2023-03-20T15:32:47;9.33;;;2.20;;
31482;SDS011;18103;52.246;8.052;2023-03-20T15:35:18;9.80;;;2.13;;
31482;SDS011;18103;52.246;8.052;2023-03-20T15:37:47;4.33;;;1.83;;
31482;SDS011;18103;52.246;8.052;2023-03-20T15:42:52;7.67;;;2.20;;
31482;SDS011;18103;52.246;8.052;2023-03-20T15:45:35;3.57;;;2.17;;
31482;SDS011;18103;52.246;8.052;2023-03-20T15:48:10;3.77;;;1.53;;
31482;SDS011;18103;52.246;8.052;2023-03-20T15:50:40;6.83;;;2.20;;
31482;SDS011;18103;52.246;8.052;2023-03-20T15:53:12;9.17;;;2.23;;
31482;SDS011;18103;52.246;8.052;2023-03-20T15:55:45;6.50;;;2.10;;
31482;SDS011;18103;52.246;8.052;2023-03-20T15:58:15;4.03;;;2.30;;
31482;SDS011;18103;52.246;8.052;2023-03-20T16:00:42;3.27;;;2.13;;
31482;SDS011;18103;52.246;8.052;2023-03-20T16:03:16;6.20;;;2.80;;
31482;SDS011;18103;52.246;8.052;2023-03-20T16:05:45;9.00;;;2.53;;
31482;SDS011;18103;52.246;8.052;2023-03-20T16:08:24;5.03;;;2.23;;
31482;SDS011;18103;52.246;8.052;2023-03-20T16:10:55;6.27;;;3.00;;
31482;SDS011;18103;52.246;8.052;2023-03-20T16:13:39;11.73;;;4.03;;
31482;SDS011;18103;52.246;8.052;2023-03-20T16:16:10;8.83;;;3.33;;
31482;SDS011;18103;52.246;8.052;2023-03-20T16:18:47;6.83;;;3.03;;
31482;SDS011;18103;52.246;8.052;2023-03-20T16:21:29;8.77;;;3.47;;
31482;SDS011;18103;52.246;8.052;2023-03-20T16:24:03;5.87;;;2.93;;
31482;SDS011;18103;52.246;8.052;2023-03-20T16:26:35;8.03;;;3.80;;
31482;SDS011;18103;52.246;8.052;2023-03-20T16:29:06;6.03;;;3.80;;
31482;SDS011;18103;52.246;8.052;2023-03-20T16:31:34;5.33;;;3.87;;
31482;SDS011;18103;52.246;8.052;2023-03-20T16:34:08;10.00;;;4.90;;
31482;SDS011;18103;52.246;8.052;2023-03-20T16:36:53;6.60;;;4.13;;
31482;SDS011;18103;52.246;8.052;2023-03-20T16:39:22;6.77;;;4.57;;
31482;SDS011;18103;52.246;8.052;2023-03-20T16:42:01;7.67;;;4.37;;
31482;SDS011;18103;52.246;8.052;2023-03-20T16:44:39;9.40;;;5.03;;
31482;SDS011;18103;52.246;8.052;2023-03-20T16:47:16;8.27;;;4.27;;
31482;SDS011;18103;52.246;8.052;2023-03-20T16:56:35;8.70;;;4.67;;
31482;SDS011;18103;52.246;8.052;2023-03-20T16:59:08;7.73;;;4.83;;
31482;SDS011;18103;52.246;8.052;2023-03-20T17:01:36;8.90;;;4.33;;
31482;SDS011;18103;52.246;8.052;2023-03-20T17:04:18;10.30;;;3.97;;
31482;SDS011;18103;52.246;8.052;2023-03-20T17:06:49;6.20;;;4.07;;
31482;SDS011;18103;52.246;8.052;2023-03-20T17:09:20;5.77;;;4.30;;
31482;SDS011;18103;52.246;8.052;2023-03-20T17:11:55;11.73;;;5.03;;
31482;SDS011;18103;52.246;8.052;2023-03-20T17:14:43;8.97;;;4.60;;
31482;SDS011;18103;52.246;8.052;2023-03-20T17:17:16;13.57;;;5.17;;
31482;SDS011;18103;52.246;8.052;2023-03-20T17:19:49;10.33;;;4.63;;
31482;SDS011;18103;52.246;8.052;2023-03-20T17:22:21;10.53;;;4.67;;
31482;SDS011;18103;52.246;8.052;2023-03-20T17:24:50;7.47;;;4.47;;
31482;SDS011;18103;52.246;8.052;2023-03-20T17:27:16;12.87;;;5.57;;
31482;SDS011;18103;52.246;8.052;2023-03-20T17:29:43;9.23;;;5.57;;
31482;SDS011;18103;52.246;8.052;2023-03-20T17:34:35;12.17;;;6.10;;
31482;SDS011;18103;52.246;8.052;2023-03-20T17:37:01;16.73;;;5.33;;
31482;SDS011;18103;52.246;8.052;2023-03-20T17:39:29;9.57;;;5.70;;
31482;SDS011;18103;52.246;8.052;2023-03-20T17:41:54;12.17;;;6.40;;
31482;SDS011;18103;52.246;8.052;2023-03-20T17:44:20;15.77;;;7.00;;
31482;SDS011;18103;52.246;8.052;2023-03-20T17:46:46;10.70;;;6.30;;
31482;SDS011;18103;52.246;8.052;2023-03-20T17:49:13;11.50;;;5.73;;